sensor_id;sensor_type;location;lat;lon;timestamp;P1;durP1;ratioP1;P2;durP2;ratioP2
77748;SDS011;66938;52.084;5.228;2024-02-28T00:00:07;55.5;;;27.2;;
77748;SDS011;66938;52.084;5.228;2024-02-28T00:01:48;54.0;;;26.7;;
77748;SDS011;66938;52.084;5.228;2024-02-28T00:05:00;52.6;;;26.6;;
77748;SDS011;66938;52.084;5.228;2024-02-28T00:06:37;53.6;;;26.7;;
77748;SDS011;66938;52.084;5.228;2024-02-28T00:08:13;52.5;;;27.0;;
77748;SDS011;66938;52.084;5.228;2024-02-28T00:11:25;57.8;;;26.3;;
77748;SDS011;66938;52.084;5.228;2024-02-28T00:13:01;60.3;;;28.2;;
77748;SDS011;66938;52.084;5.228;2024-02-28T00:14:37;61.5;;;28.6;;
77748;SDS011;66938;52.084;5.228;2024-02-28T00:17:54;55.0;;;26.7;;
77748;SDS011;66938;52.084;5.228;2024-02-28T00:19:30;55.0;;;26.7;;
77748;SDS011;66938;52.084;5.228;2024-02-28T00:21:07;57.0;;;27.3;;
77748;SDS011;66938;52.084;5.228;2024-02-28T00:22:43;57.3;;;26.7;;
77748;SDS011;66938;52.084;5.228;2024-02-28T00:25:55;56.6;;;27.2;;
77748;SDS011;66938;52.084;5.228;2024-02-28T00:27:31;64.5;;;28.1;;
77748;SDS011;66938;52.084;5.228;2024-02-28T00:29:08;57.6;;;27.6;;
77748;SDS011;66938;52.084;5.228;2024-02-28T00:32:20;60.5;;;27.7;;
77748;SDS011;66938;52.084;5.228;2024-02-28T00:33:57;62.0;;;27.2;;
77748;SDS011;66938;52.084;5.228;2024-02-28T00:35:33;62.7;;;27.6;;
77748;SDS011;66938;52.084;5.228;2024-02-28T00:38:45;63.6;;;27.5;;
77748;SDS011;66938;52.084;5.228;2024-02-28T00:40:21;64.41;;;27.8;;
77748;SDS011;66938;52.084;5.228;2024-02-28T00:41:57;65.41;;;28.6;;
77748;SDS011;66938;52.084;5.228;2024-02-28T00:43:33;62.3;;;28.0;;
77748;SDS011;66938;52.084;5.228;2024-02-28T00:46:45;65.91;;;28.7;;
77748;SDS011;66938;52.084;5.228;2024-02-28T00:48:22;65.8;;;27.8;;
77748;SDS011;66938;52.084;5.228;2024-02-28T00:49:58;67.7;;;28.6;;
77748;SDS011;66938;52.084;5.228;2024-02-28T00:53:10;66.1;;;27.9;;
77748;SDS011;66938;52.084;5.228;2024-02-28T00:54:46;65.2;;;27.4;;
77748;SDS011;66938;52.084;5.228;2024-02-28T00:56:22;64.6;;;27.7;;
77748;SDS011;66938;52.084;5.228;2024-02-28T00:59:34;64.0;;;27.5;;
77748;SDS011;66938;52.084;5.228;2024-02-28T01:01:10;72.0;;;28.3;;
77748;SDS011;66938;52.084;5.228;2024-02-28T01:02:47;65.6;;;27.2;;
77748;SDS011;66938;52.084;5.228;2024-02-28T01:06:00;67.8;;;27.9;;
77748;SDS011;66938;52.084;5.228;2024-02-28T01:07:36;70.41;;;28.3;;
77748;SDS011;66938;52.084;5.228;2024-02-28T01:09:12;68.3;;;27.2;;
77748;SDS011;66938;52.084;5.228;2024-02-28T01:10:48;74.91;;;27.8;;
77748;SDS011;66938;52.084;5.228;2024-02-28T01:14:00;68.91;;;28.0;;
77748;SDS011;66938;52.084;5.228;2024-02-28T01:15:36;70.0;;;29.1;;
77748;SDS011;66938;52.084;5.228;2024-02-28T01:17:15;71.2;;;26.6;;
77748;SDS011;66938;52.084;5.228;2024-02-28T01:20:28;70.91;;;27.9;;
77748;SDS011;66938;52.084;5.228;2024-02-28T01:22:04;71.3;;;27.7;;
77748;SDS011;66938;52.084;5.228;2024-02-28T01:23:40;67.5;;;26.5;;
77748;SDS011;66938;52.084;5.228;2024-02-28T01:26:52;75.41;;;28.0;;
77748;SDS011;66938;52.084;5.228;2024-02-28T01:28:28;67.7;;;26.8;;
77748;SDS011;66938;52.084;5.228;2024-02-28T01:30:05;66.1;;;27.6;;
77748;SDS011;66938;52.084;5.228;2024-02-28T01:31:42;66.1;;;27.2;;
77748;SDS011;66938;52.084;5.228;2024-02-28T01:34:58;72.8;;;28.0;;
77748;SDS011;66938;52.084;5.228;2024-02-28T01:36:34;70.7;;;27.4;;
77748;SDS011;66938;52.084;5.228;2024-02-28T01:38:10;68.0;;;27.0;;
77748;SDS011;66938;52.084;5.228;2024-02-28T01:41:22;68.41;;;27.1;;
77748;SDS011;66938;52.084;5.228;2024-02-28T01:43:02;69.11;;;26.5;;
77748;SDS011;66938;52.084;5.228;2024-02-28T01:44:40;70.8;;;27.0;;
77748;SDS011;66938;52.084;5.228;2024-02-28T01:46:21;63.4;;;26.5;;
77748;SDS011;66938;52.084;5.228;2024-02-28T01:49:38;70.8;;;28.1;;
77748;SDS011;66938;52.084;5.228;2024-02-28T01:51:15;69.11;;;26.8;;
77748;SDS011;66938;52.084;5.228;2024-02-28T01:52:52;72.8;;;26.4;;
77748;SDS011;66938;52.084;5.228;2024-02-28T01:56:05;70.5;;;26.3;;
77748;SDS011;66938;52.084;5.228;2024-02-28T01:57:42;73.8;;;27.1;;
77748;SDS011;66938;52.084;5.228;2024-02-28T01:59:18;68.61;;;26.8;;
77748;SDS011;66938;52.084;5.228;2024-02-28T02:02:31;70.3;;;26.3;;
77748;SDS011;66938;52.084;5.228;2024-02-28T02:04:08;69.61;;;27.5;;
77748;SDS011;66938;52.084;5.228;2024-02-28T02:05:44;69.91;;;27.1;;
77748;SDS011;66938;52.084;5.228;2024-02-28T02:07:20;64.91;;;26.2;;
77748;SDS011;66938;52.084;5.228;2024-02-28T02:10:32;65.7;;;27.1;;
77748;SDS011;66938;52.084;5.228;2024-02-28T02:12:08;61.9;;;27.3;;
77748;SDS011;66938;52.084;5.228;2024-02-28T02:13:47;74.8;;;26.2;;
77748;SDS011;66938;52.084;5.228;2024-02-28T02:17:00;69.61;;;27.1;;
77748;SDS011;66938;52.084;5.228;2024-02-28T02:18:36;63.5;;;26.1;;
77748;SDS011;66938;52.084;5.228;2024-02-28T02:20:15;67.91;;;25.9;;
77748;SDS011;66938;52.084;5.228;2024-02-28T02:21:57;68.91;;;25.0;;
77748;SDS011;66938;52.084;5.228;2024-02-28T02:25:10;70.0;;;26.4;;
77748;SDS011;66938;52.084;5.228;2024-02-28T02:26:46;67.91;;;26.0;;
77748;SDS011;66938;52.084;5.228;2024-02-28T02:28:22;67.5;;;25.7;;
77748;SDS011;66938;52.084;5.228;2024-02-28T02:31:35;66.1;;;26.4;;
77748;SDS011;66938;52.084;5.228;2024-02-28T02:33:11;61.7;;;26.5;;
77748;SDS011;66938;52.084;5.228;2024-02-28T02:34:47;68.41;;;26.2;;
77748;SDS011;66938;52.084;5.228;2024-02-28T02:37:59;67.3;;;25.8;;
77748;SDS011;66938;52.084;5.228;2024-02-28T02:39:35;68.1;;;26.6;;
77748;SDS011;66938;52.084;5.228;2024-02-28T02:41:11;66.6;;;25.6;;
77748;SDS011;66938;52.084;5.228;2024-02-28T02:42:47;71.41;;;25.9;;
77748;SDS011;66938;52.084;5.228;2024-02-28T02:45:59;68.1;;;26.3;;
77748;SDS011;66938;52.084;5.228;2024-02-28T02:47:35;63.7;;;27.0;;
77748;SDS011;66938;52.084;5.228;2024-02-28T02:49:12;69.0;;;26.6;;
77748;SDS011;66938;52.084;5.228;2024-02-28T02:52:24;69.7;;;27.1;;
77748;SDS011;66938;52.084;5.228;2024-02-28T02:54:05;74.3;;;26.5;;
77748;SDS011;66938;52.084;5.228;2024-02-28T02:55:41;66.3;;;25.9;;
77748;SDS011;66938;52.084;5.228;2024-02-28T02:58:53;71.61;;;26.3;;
77748;SDS011;66938;52.084;5.228;2024-02-28T03:00:29;66.91;;;26.3;;
77748;SDS011;66938;52.084;5.228;2024-02-28T03:02:05;71.5;;;26.9;;
77748;SDS011;66938;52.084;5.228;2024-02-28T03:03:42;69.0;;;25.7;;
77748;SDS011;66938;52.084;5.228;2024-02-28T03:06:54;62.9;;;25.0;;
77748;SDS011;66938;52.084;5.228;2024-02-28T03:08:30;62.9;;;25.0;;
77748;SDS011;66938;52.084;5.228;2024-02-28T03:10:06;66.7;;;25.5;;
77748;SDS011;66938;52.084;5.228;2024-02-28T03:13:18;63.4;;;25.6;;
77748;SDS011;66938;52.084;5.228;2024-02-28T03:14:54;60.2;;;25.8;;
77748;SDS011;66938;52.084;5.228;2024-02-28T03:16:31;59.0;;;26.3;;
77748;SDS011;66938;52.084;5.228;2024-02-28T03:19:44;62.4;;;26.2;;
77748;SDS011;66938;52.084;5.228;2024-02-28T03:21:20;59.8;;;26.0;;
77748;SDS011;66938;52.084;5.228;2024-02-28T03:22:56;56.5;;;26.1;;
77748;SDS011;66938;52.084;5.228;2024-02-28T03:26:08;56.5;;;25.7;;
77748;SDS011;66938;52.084;5.228;2024-02-28T03:27:44;57.4;;;26.4;;
77748;SDS011;66938;52.084;5.228;2024-02-28T03:29:20;59.2;;;25.6;;
77748;SDS011;66938;52.084;5.228;2024-02-28T03:30:56;54.4;;;25.1;;
77748;SDS011;66938;52.084;5.228;2024-02-28T03:34:09;55.7;;;26.5;;
77748;SDS011;66938;52.084;5.228;2024-02-28T03:35:45;58.5;;;27.0;;
77748;SDS011;66938;52.084;5.228;2024-02-28T03:37:21;50.6;;;25.6;;
77748;SDS011;66938;52.084;5.228;2024-02-28T03:40:36;51.6;;;25.9;;
77748;SDS011;66938;52.084;5.228;2024-02-28T03:42:12;54.0;;;26.9;;
77748;SDS011;66938;52.084;5.228;2024-02-28T03:43:48;62.3;;;26.6;;
77748;SDS011;66938;52.084;5.228;2024-02-28T03:47:04;56.4;;;26.9;;
77748;SDS011;66938;52.084;5.228;2024-02-28T03:48:41;52.6;;;26.5;;
77748;SDS011;66938;52.084;5.228;2024-02-28T03:50:17;56.0;;;27.0;;
77748;SDS011;66938;52.084;5.228;2024-02-28T03:51:53;54.0;;;26.7;;
77748;SDS011;66938;52.084;5.228;2024-02-28T03:55:05;54.0;;;25.9;;
77748;SDS011;66938;52.084;5.228;2024-02-28T03:56:42;54.6;;;26.1;;
77748;SDS011;66938;52.084;5.228;2024-02-28T03:58:18;58.7;;;26.7;;
77748;SDS011;66938;52.084;5.228;2024-02-28T04:01:30;52.1;;;26.5;;
77748;SDS011;66938;52.084;5.228;2024-02-28T04:03:06;49.5;;;25.8;;
77748;SDS011;66938;52.084;5.228;2024-02-28T04:04:42;49.9;;;26.8;;
77748;SDS011;66938;52.084;5.228;2024-02-28T04:07:55;50.5;;;26.4;;
77748;SDS011;66938;52.084;5.228;2024-02-28T04:09:31;47.4;;;25.8;;
77748;SDS011;66938;52.084;5.228;2024-02-28T04:11:07;46.1;;;26.2;;
77748;SDS011;66938;52.084;5.228;2024-02-28T04:12:43;46.0;;;26.5;;
77748;SDS011;66938;52.084;5.228;2024-02-28T04:15:55;45.7;;;25.2;;
77748;SDS011;66938;52.084;5.228;2024-02-28T04:17:31;43.7;;;25.3;;
77748;SDS011;66938;52.084;5.228;2024-02-28T04:19:07;47.1;;;25.5;;
77748;SDS011;66938;52.084;5.228;2024-02-28T04:22:20;43.7;;;24.5;;
77748;SDS011;66938;52.084;5.228;2024-02-28T04:23:56;42.4;;;24.9;;
77748;SDS011;66938;52.084;5.228;2024-02-28T04:25:32;44.1;;;25.4;;
77748;SDS011;66938;52.084;5.228;2024-02-28T04:28:44;41.0;;;24.8;;
77748;SDS011;66938;52.084;5.228;2024-02-28T04:30:20;43.9;;;25.6;;
77748;SDS011;66938;52.084;5.228;2024-02-28T04:31:56;43.6;;;25.1;;
77748;SDS011;66938;52.084;5.228;2024-02-28T04:35:09;40.6;;;25.4;;
77748;SDS011;66938;52.084;5.228;2024-02-28T04:36:46;40.0;;;25.0;;
77748;SDS011;66938;52.084;5.228;2024-02-28T04:38:22;39.9;;;24.6;;
77748;SDS011;66938;52.084;5.228;2024-02-28T04:39:58;40.71;;;24.8;;
77748;SDS011;66938;52.084;5.228;2024-02-28T04:43:10;40.71;;;24.8;;
77748;SDS011;66938;52.084;5.228;2024-02-28T04:44:46;39.1;;;23.6;;
77748;SDS011;66938;52.084;5.228;2024-02-28T04:46:22;38.71;;;23.7;;
77748;SDS011;66938;52.084;5.228;2024-02-28T04:49:36;35.0;;;23.7;;
77748;SDS011;66938;52.084;5.228;2024-02-28T04:51:15;40.4;;;25.1;;
77748;SDS011;66938;52.084;5.228;2024-02-28T04:52:51;40.21;;;24.7;;
77748;SDS011;66938;52.084;5.228;2024-02-28T04:56:03;38.9;;;24.5;;
77748;SDS011;66938;52.084;5.228;2024-02-28T04:57:39;38.21;;;26.1;;
77748;SDS011;66938;52.084;5.228;2024-02-28T04:59:15;38.21;;;26.1;;
77748;SDS011;66938;52.084;5.228;2024-02-28T05:00:51;36.9;;;24.6;;
77748;SDS011;66938;52.084;5.228;2024-02-28T05:04:04;38.9;;;25.2;;
77748;SDS011;66938;52.084;5.228;2024-02-28T05:05:41;35.71;;;24.0;;
77748;SDS011;66938;52.084;5.228;2024-02-28T05:07:16;36.0;;;24.2;;
77748;SDS011;66938;52.084;5.228;2024-02-28T05:10:28;37.1;;;23.5;;
77748;SDS011;66938;52.084;5.228;2024-02-28T05:12:04;37.0;;;25.0;;
77748;SDS011;66938;52.084;5.228;2024-02-28T05:13:41;33.21;;;23.7;;
77748;SDS011;66938;52.084;5.228;2024-02-28T05:16:53;38.21;;;24.8;;
77748;SDS011;66938;52.084;5.228;2024-02-28T05:18:29;37.9;;;24.1;;
77748;SDS011;66938;52.084;5.228;2024-02-28T05:20:06;34.31;;;22.9;;
77748;SDS011;66938;52.084;5.228;2024-02-28T05:23:20;34.0;;;23.4;;
77748;SDS011;66938;52.084;5.228;2024-02-28T05:24:56;36.5;;;23.4;;
77748;SDS011;66938;52.084;5.228;2024-02-28T05:26:33;35.1;;;23.4;;
77748;SDS011;66938;52.084;5.228;2024-02-28T05:28:10;34.5;;;23.1;;
77748;SDS011;66938;52.084;5.228;2024-02-28T05:31:24;34.31;;;23.4;;
77748;SDS011;66938;52.084;5.228;2024-02-28T05:33:01;33.3;;;22.8;;
77748;SDS011;66938;52.084;5.228;2024-02-28T05:34:37;32.0;;;22.8;;
77748;SDS011;66938;52.084;5.228;2024-02-28T05:37:52;30.9;;;22.5;;
77748;SDS011;66938;52.084;5.228;2024-02-28T05:39:29;31.3;;;22.2;;
77748;SDS011;66938;52.084;5.228;2024-02-28T05:41:05;27.9;;;21.0;;
77748;SDS011;66938;52.084;5.228;2024-02-28T05:42:41;36.21;;;22.2;;
77748;SDS011;66938;52.084;5.228;2024-02-28T05:45:53;30.8;;;22.1;;
77748;SDS011;66938;52.084;5.228;2024-02-28T05:47:29;30.8;;;21.8;;
77748;SDS011;66938;52.084;5.228;2024-02-28T05:49:05;30.3;;;21.5;;
77748;SDS011;66938;52.084;5.228;2024-02-28T05:52:18;32.5;;;22.1;;
77748;SDS011;66938;52.084;5.228;2024-02-28T05:53:54;28.6;;;21.6;;
77748;SDS011;66938;52.084;5.228;2024-02-28T05:55:30;30.8;;;21.1;;
77748;SDS011;66938;52.084;5.228;2024-02-28T05:58:43;29.9;;;21.8;;
77748;SDS011;66938;52.084;5.228;2024-02-28T06:00:19;29.3;;;20.6;;
77748;SDS011;66938;52.084;5.228;2024-02-28T06:01:55;30.9;;;21.0;;
77748;SDS011;66938;52.084;5.228;2024-02-28T06:05:08;30.8;;;21.7;;
77748;SDS011;66938;52.084;5.228;2024-02-28T06:06:44;27.9;;;20.2;;
77748;SDS011;66938;52.084;5.228;2024-02-28T06:08:20;29.6;;;21.2;;
77748;SDS011;66938;52.084;5.228;2024-02-28T06:09:56;28.9;;;22.0;;
77748;SDS011;66938;52.084;5.228;2024-02-28T06:13:08;29.4;;;20.11;;
77748;SDS011;66938;52.084;5.228;2024-02-28T06:14:44;29.3;;;20.3;;
77748;SDS011;66938;52.084;5.228;2024-02-28T06:16:20;28.0;;;21.1;;
77748;SDS011;66938;52.084;5.228;2024-02-28T06:19:32;32.1;;;22.4;;
77748;SDS011;66938;52.084;5.228;2024-02-28T06:21:09;31.3;;;21.8;;
77748;SDS011;66938;52.084;5.228;2024-02-28T06:22:45;28.6;;;21.2;;
77748;SDS011;66938;52.084;5.228;2024-02-28T06:25:57;32.0;;;21.4;;
77748;SDS011;66938;52.084;5.228;2024-02-28T06:27:33;28.1;;;20.41;;
77748;SDS011;66938;52.084;5.228;2024-02-28T06:29:09;28.9;;;20.7;;
77748;SDS011;66938;52.084;5.228;2024-02-28T06:32:23;29.7;;;21.0;;
77748;SDS011;66938;52.084;5.228;2024-02-28T06:33:59;30.1;;;21.3;;
77748;SDS011;66938;52.084;5.228;2024-02-28T06:35:35;28.4;;;21.3;;
77748;SDS011;66938;52.084;5.228;2024-02-28T06:37:11;29.7;;;21.7;;
77748;SDS011;66938;52.084;5.228;2024-02-28T06:40:26;30.9;;;22.7;;
77748;SDS011;66938;52.084;5.228;2024-02-28T06:42:02;28.1;;;21.9;;
77748;SDS011;66938;52.084;5.228;2024-02-28T06:43:38;29.8;;;22.0;;
77748;SDS011;66938;52.084;5.228;2024-02-28T06:46:50;31.9;;;21.9;;
77748;SDS011;66938;52.084;5.228;2024-02-28T06:48:27;29.8;;;22.7;;
77748;SDS011;66938;52.084;5.228;2024-02-28T06:50:04;30.3;;;22.5;;
77748;SDS011;66938;52.084;5.228;2024-02-28T06:53:19;29.4;;;21.6;;
77748;SDS011;66938;52.084;5.228;2024-02-28T06:54:55;29.8;;;22.2;;
77748;SDS011;66938;52.084;5.228;2024-02-28T06:56:32;32.21;;;22.4;;
77748;SDS011;66938;52.084;5.228;2024-02-28T06:58:08;31.9;;;21.2;;
77748;SDS011;66938;52.084;5.228;2024-02-28T07:01:23;29.0;;;21.4;;
77748;SDS011;66938;52.084;5.228;2024-02-28T07:02:59;31.6;;;22.5;;
77748;SDS011;66938;52.084;5.228;2024-02-28T07:04:35;34.6;;;23.6;;
77748;SDS011;66938;52.084;5.228;2024-02-28T07:07:47;33.0;;;24.1;;
77748;SDS011;66938;52.084;5.228;2024-02-28T07:09:23;31.4;;;22.6;;
77748;SDS011;66938;52.084;5.228;2024-02-28T07:11:00;32.21;;;24.1;;
77748;SDS011;66938;52.084;5.228;2024-02-28T07:14:12;33.21;;;23.9;;
77748;SDS011;66938;52.084;5.228;2024-02-28T07:15:48;29.7;;;22.5;;
77748;SDS011;66938;52.084;5.228;2024-02-28T07:17:24;30.6;;;23.4;;
77748;SDS011;66938;52.084;5.228;2024-02-28T07:19:00;32.4;;;22.8;;
77748;SDS011;66938;52.084;5.228;2024-02-28T07:22:13;29.2;;;21.9;;
77748;SDS011;66938;52.084;5.228;2024-02-28T07:23:50;30.5;;;22.4;;
77748;SDS011;66938;52.084;5.228;2024-02-28T07:25:25;28.5;;;21.6;;
77748;SDS011;66938;52.084;5.228;2024-02-28T07:28:38;25.9;;;20.11;;
77748;SDS011;66938;52.084;5.228;2024-02-28T07:30:14;26.7;;;21.0;;
77748;SDS011;66938;52.084;5.228;2024-02-28T07:31:50;30.4;;;21.2;;
77748;SDS011;66938;52.084;5.228;2024-02-28T07:35:02;24.3;;;19.7;;
77748;SDS011;66938;52.084;5.228;2024-02-28T07:36:38;28.2;;;20.3;;
77748;SDS011;66938;52.084;5.228;2024-02-28T07:38:14;30.2;;;20.7;;
77748;SDS011;66938;52.084;5.228;2024-02-28T07:39:50;26.9;;;21.3;;
77748;SDS011;66938;52.084;5.228;2024-02-28T07:43:04;27.1;;;20.11;;
77748;SDS011;66938;52.084;5.228;2024-02-28T07:44:40;30.4;;;21.0;;
77748;SDS011;66938;52.084;5.228;2024-02-28T07:46:16;25.4;;;19.7;;
77748;SDS011;66938;52.084;5.228;2024-02-28T07:49:28;29.9;;;22.5;;
77748;SDS011;66938;52.084;5.228;2024-02-28T07:51:04;28.3;;;21.8;;
77748;SDS011;66938;52.084;5.228;2024-02-28T07:52:40;31.7;;;22.1;;
77748;SDS011;66938;52.084;5.228;2024-02-28T07:55:52;30.5;;;22.2;;
77748;SDS011;66938;52.084;5.228;2024-02-28T07:57:30;28.3;;;21.3;;
77748;SDS011;66938;52.084;5.228;2024-02-28T07:59:07;29.5;;;22.4;;
77748;SDS011;66938;52.084;5.228;2024-02-28T08:02:20;31.5;;;23.7;;
77748;SDS011;66938;52.084;5.228;2024-02-28T08:03:56;29.4;;;22.9;;
77748;SDS011;66938;52.084;5.228;2024-02-28T08:05:32;28.6;;;21.5;;
77748;SDS011;66938;52.084;5.228;2024-02-28T08:07:08;31.2;;;23.0;;
77748;SDS011;66938;52.084;5.228;2024-02-28T08:10:20;28.6;;;23.2;;
77748;SDS011;66938;52.084;5.228;2024-02-28T08:11:56;31.7;;;23.9;;
77748;SDS011;66938;52.084;5.228;2024-02-28T08:13:33;30.9;;;22.8;;
77748;SDS011;66938;52.084;5.228;2024-02-28T08:16:46;26.2;;;21.5;;
77748;SDS011;66938;52.084;5.228;2024-02-28T08:18:22;28.4;;;20.9;;
77748;SDS011;66938;52.084;5.228;2024-02-28T08:23:10;26.3;;;22.1;;
77748;SDS011;66938;52.084;5.228;2024-02-28T08:24:46;30.4;;;23.1;;
77748;SDS011;66938;52.084;5.228;2024-02-28T08:26:22;27.5;;;22.3;;
77748;SDS011;66938;52.084;5.228;2024-02-28T08:27:59;25.0;;;20.6;;
77748;SDS011;66938;52.084;5.228;2024-02-28T08:31:12;28.9;;;22.5;;
77748;SDS011;66938;52.084;5.228;2024-02-28T08:32:48;26.7;;;20.3;;
77748;SDS011;66938;52.084;5.228;2024-02-28T08:34:24;25.1;;;20.2;;
77748;SDS011;66938;52.084;5.228;2024-02-28T08:37:38;27.2;;;20.2;;
77748;SDS011;66938;52.084;5.228;2024-02-28T08:39:14;25.1;;;19.91;;
77748;SDS011;66938;52.084;5.228;2024-02-28T08:40:51;25.1;;;20.3;;
77748;SDS011;66938;52.084;5.228;2024-02-28T08:44:04;26.6;;;20.8;;
77748;SDS011;66938;52.084;5.228;2024-02-28T08:45:40;24.8;;;20.11;;
77748;SDS011;66938;52.084;5.228;2024-02-28T08:47:16;27.1;;;19.2;;
77748;SDS011;66938;52.084;5.228;2024-02-28T08:48:52;23.4;;;18.0;;
77748;SDS011;66938;52.084;5.228;2024-02-28T08:52:04;25.5;;;19.61;;
77748;SDS011;66938;52.084;5.228;2024-02-28T08:53:40;20.7;;;18.41;;
77748;SDS011;66938;52.084;5.228;2024-02-28T08:55:16;25.0;;;20.3;;
77748;SDS011;66938;52.084;5.228;2024-02-28T08:58:28;24.7;;;20.11;;
77748;SDS011;66938;52.084;5.228;2024-02-28T09:00:05;25.9;;;20.3;;
77748;SDS011;66938;52.084;5.228;2024-02-28T09:01:42;23.7;;;19.91;;
77748;SDS011;66938;52.084;5.228;2024-02-28T09:04:54;21.1;;;18.11;;
77748;SDS011;66938;52.084;5.228;2024-02-28T09:06:31;22.1;;;18.7;;
77748;SDS011;66938;52.084;5.228;2024-02-28T09:08:07;23.9;;;19.7;;
77748;SDS011;66938;52.084;5.228;2024-02-28T09:11:21;28.1;;;20.11;;
77748;SDS011;66938;52.084;5.228;2024-02-28T09:12:57;27.5;;;21.6;;
77748;SDS011;66938;52.084;5.228;2024-02-28T09:14:33;26.8;;;21.8;;
77748;SDS011;66938;52.084;5.228;2024-02-28T09:16:09;30.4;;;21.0;;
77748;SDS011;66938;52.084;5.228;2024-02-28T09:19:22;23.6;;;19.61;;
77748;SDS011;66938;52.084;5.228;2024-02-28T09:20:58;22.6;;;18.61;;
77748;SDS011;66938;52.084;5.228;2024-02-28T09:22:35;25.6;;;19.41;;
77748;SDS011;66938;52.084;5.228;2024-02-28T09:25:48;28.0;;;19.7;;
77748;SDS011;66938;52.084;5.228;2024-02-28T09:27:24;24.4;;;20.2;;
77748;SDS011;66938;52.084;5.228;2024-02-28T09:29:00;24.1;;;20.7;;
77748;SDS011;66938;52.084;5.228;2024-02-28T09:32:12;28.5;;;21.3;;
77748;SDS011;66938;52.084;5.228;2024-02-28T09:33:48;27.1;;;22.1;;
77748;SDS011;66938;52.084;5.228;2024-02-28T09:35:24;28.8;;;22.5;;
77748;SDS011;66938;52.084;5.228;2024-02-28T09:37:00;23.3;;;18.61;;
77748;SDS011;66938;52.084;5.228;2024-02-28T09:40:13;23.2;;;20.7;;
77748;SDS011;66938;52.084;5.228;2024-02-28T09:41:49;23.5;;;19.0;;
77748;SDS011;66938;52.084;5.228;2024-02-28T09:43:28;25.5;;;20.11;;
77748;SDS011;66938;52.084;5.228;2024-02-28T09:46:45;28.7;;;20.8;;
77748;SDS011;66938;52.084;5.228;2024-02-28T09:48:22;24.1;;;19.3;;
77748;SDS011;66938;52.084;5.228;2024-02-28T09:49:59;23.6;;;19.8;;
77748;SDS011;66938;52.084;5.228;2024-02-28T09:51:37;22.6;;;19.7;;
77748;SDS011;66938;52.084;5.228;2024-02-28T09:54:50;28.2;;;20.11;;
77748;SDS011;66938;52.084;5.228;2024-02-28T09:56:26;26.7;;;21.3;;
77748;SDS011;66938;52.084;5.228;2024-02-28T09:58:03;28.0;;;21.5;;
77748;SDS011;66938;52.084;5.228;2024-02-28T10:01:18;26.4;;;21.0;;
77748;SDS011;66938;52.084;5.228;2024-02-28T10:02:57;25.9;;;21.1;;
77748;SDS011;66938;52.084;5.228;2024-02-28T10:04:34;30.0;;;23.2;;
77748;SDS011;66938;52.084;5.228;2024-02-28T10:07:49;28.9;;;22.7;;
77748;SDS011;66938;52.084;5.228;2024-02-28T10:09:26;28.1;;;21.9;;
77748;SDS011;66938;52.084;5.228;2024-02-28T10:11:02;27.4;;;22.1;;
77748;SDS011;66938;52.084;5.228;2024-02-28T10:12:40;29.9;;;23.0;;
77748;SDS011;66938;52.084;5.228;2024-02-28T10:15:54;29.0;;;23.6;;
77748;SDS011;66938;52.084;5.228;2024-02-28T10:17:30;29.3;;;23.3;;
77748;SDS011;66938;52.084;5.228;2024-02-28T10:19:06;31.2;;;23.8;;
77748;SDS011;66938;52.084;5.228;2024-02-28T10:22:18;32.1;;;23.5;;
77748;SDS011;66938;52.084;5.228;2024-02-28T10:23:54;25.8;;;21.5;;
77748;SDS011;66938;52.084;5.228;2024-02-28T10:25:41;30.4;;;21.8;;
77748;SDS011;66938;52.084;5.228;2024-02-28T10:27:18;30.4;;;21.8;;
77748;SDS011;66938;52.084;5.228;2024-02-28T10:30:30;30.8;;;22.9;;
77748;SDS011;66938;52.084;5.228;2024-02-28T10:32:05;26.1;;;22.4;;
77748;SDS011;66938;52.084;5.228;2024-02-28T10:33:42;26.1;;;22.4;;
77748;SDS011;66938;52.084;5.228;2024-02-28T10:36:55;27.6;;;23.3;;
77748;SDS011;66938;52.084;5.228;2024-02-28T10:38:32;35.31;;;25.7;;
77748;SDS011;66938;52.084;5.228;2024-02-28T10:40:09;35.5;;;26.9;;
77748;SDS011;66938;52.084;5.228;2024-02-28T10:43:24;32.6;;;26.4;;
77748;SDS011;66938;52.084;5.228;2024-02-28T10:45:04;32.0;;;24.5;;
77748;SDS011;66938;52.084;5.228;2024-02-28T10:46:45;34.81;;;23.6;;
77748;SDS011;66938;52.084;5.228;2024-02-28T10:48:25;30.1;;;22.8;;
77748;SDS011;66938;52.084;5.228;2024-02-28T10:51:38;31.4;;;24.5;;
77748;SDS011;66938;52.084;5.228;2024-02-28T10:53:32;31.5;;;23.9;;
77748;SDS011;66938;52.084;5.228;2024-02-28T10:55:12;32.9;;;22.7;;
77748;SDS011;66938;52.084;5.228;2024-02-28T10:56:52;28.3;;;21.8;;
77748;SDS011;66938;52.084;5.228;2024-02-28T11:00:11;26.4;;;20.8;;
77748;SDS011;66938;52.084;5.228;2024-02-28T11:01:49;28.8;;;22.0;;
77748;SDS011;66938;52.084;5.228;2024-02-28T11:03:26;31.8;;;23.1;;
77748;SDS011;66938;52.084;5.228;2024-02-28T11:05:02;26.2;;;20.9;;
77748;SDS011;66938;52.084;5.228;2024-02-28T11:08:26;27.8;;;21.5;;
77748;SDS011;66938;52.084;5.228;2024-02-28T11:10:05;28.8;;;22.0;;
77748;SDS011;66938;52.084;5.228;2024-02-28T11:11:41;33.0;;;22.7;;
77748;SDS011;66938;52.084;5.228;2024-02-28T11:13:21;29.2;;;22.7;;
77748;SDS011;66938;52.084;5.228;2024-02-28T11:16:35;29.2;;;22.7;;
77748;SDS011;66938;52.084;5.228;2024-02-28T11:18:11;31.1;;;23.5;;
77748;SDS011;66938;52.084;5.228;2024-02-28T11:19:47;32.9;;;24.3;;
77748;SDS011;66938;52.084;5.228;2024-02-28T11:23:00;31.7;;;24.8;;
77748;SDS011;66938;52.084;5.228;2024-02-28T11:24:37;29.9;;;24.5;;
77748;SDS011;66938;52.084;5.228;2024-02-28T11:26:13;34.0;;;25.6;;
77748;SDS011;66938;52.084;5.228;2024-02-28T11:27:49;33.8;;;25.0;;
77748;SDS011;66938;52.084;5.228;2024-02-28T11:31:03;31.3;;;24.7;;
77748;SDS011;66938;52.084;5.228;2024-02-28T11:32:40;32.6;;;25.0;;
77748;SDS011;66938;52.084;5.228;2024-02-28T11:34:16;33.0;;;24.5;;
77748;SDS011;66938;52.084;5.228;2024-02-28T11:37:31;30.0;;;23.6;;
77748;SDS011;66938;52.084;5.228;2024-02-28T11:39:07;31.6;;;23.4;;
77748;SDS011;66938;52.084;5.228;2024-02-28T11:40:48;31.5;;;22.4;;
77748;SDS011;66938;52.084;5.228;2024-02-28T11:44:00;29.1;;;22.9;;
77748;SDS011;66938;52.084;5.228;2024-02-28T11:45:39;28.1;;;22.8;;
77748;SDS011;66938;52.084;5.228;2024-02-28T11:47:15;30.5;;;22.9;;
77748;SDS011;66938;52.084;5.228;2024-02-28T11:48:52;28.8;;;22.1;;
77748;SDS011;66938;52.084;5.228;2024-02-28T11:52:05;30.7;;;23.0;;
77748;SDS011;66938;52.084;5.228;2024-02-28T11:53:42;29.0;;;22.7;;
77748;SDS011;66938;52.084;5.228;2024-02-28T11:55:19;28.7;;;21.0;;
77748;SDS011;66938;52.084;5.228;2024-02-28T11:58:31;29.8;;;21.7;;
77748;SDS011;66938;52.084;5.228;2024-02-28T12:00:08;29.2;;;22.1;;
77748;SDS011;66938;52.084;5.228;2024-02-28T12:01:45;31.5;;;23.2;;
77748;SDS011;66938;52.084;5.228;2024-02-28T12:05:01;31.1;;;22.5;;
77748;SDS011;66938;52.084;5.228;2024-02-28T12:06:38;27.5;;;21.3;;
77748;SDS011;66938;52.084;5.228;2024-02-28T12:08:16;29.7;;;21.7;;
77748;SDS011;66938;52.084;5.228;2024-02-28T12:09:53;29.7;;;22.2;;
77748;SDS011;66938;52.084;5.228;2024-02-28T12:13:05;27.2;;;21.1;;
77748;SDS011;66938;52.084;5.228;2024-02-28T12:14:42;31.3;;;22.1;;
77748;SDS011;66938;52.084;5.228;2024-02-28T12:16:23;25.0;;;19.41;;
77748;SDS011;66938;52.084;5.228;2024-02-28T12:19:43;27.3;;;19.2;;
77748;SDS011;66938;52.084;5.228;2024-02-28T12:21:19;25.9;;;19.3;;
77748;SDS011;66938;52.084;5.228;2024-02-28T12:22:55;26.7;;;19.0;;
77748;SDS011;66938;52.084;5.228;2024-02-28T12:24:31;27.9;;;20.0;;
77748;SDS011;66938;52.084;5.228;2024-02-28T12:27:43;26.7;;;19.41;;
77748;SDS011;66938;52.084;5.228;2024-02-28T12:29:20;29.6;;;19.5;;
77748;SDS011;66938;52.084;5.228;2024-02-28T12:30:55;28.8;;;20.11;;
77748;SDS011;66938;52.084;5.228;2024-02-28T12:34:08;24.7;;;18.91;;
77748;SDS011;66938;52.084;5.228;2024-02-28T12:35:44;27.4;;;19.2;;